createdAt,value
2023-06-08T00:01:45.634Z,13.90
2023-06-08T00:04:14.117Z,13.80
2023-06-08T00:06:42.348Z,13.80
2023-06-08T00:09:10.377Z,13.80
2023-06-08T00:11:38.909Z,13.80
2023-06-08T00:14:05.963Z,13.80
2023-06-08T00:16:35.185Z,13.80
2023-06-08T00:19:02.944Z,13.80
2023-06-08T00:21:34.546Z,13.80
2023-06-08T00:24:01.827Z,13.80
2023-06-08T00:26:29.033Z,13.80
2023-06-08T00:28:56.091Z,13.80
2023-06-08T00:31:23.182Z,13.80
2023-06-08T00:33:50.163Z,13.80
2023-06-08T00:36:17.159Z,13.80
2023-06-08T00:38:44.357Z,13.80
2023-06-08T00:41:11.333Z,13.80
2023-06-08T00:43:38.337Z,13.80
2023-06-08T00:46:08.755Z,13.80
2023-06-08T00:48:36.149Z,13.70
2023-06-08T00:51:03.662Z,13.70
2023-06-08T00:53:32.719Z,13.70
2023-06-08T00:56:00.760Z,13.70
2023-06-08T00:58:30.105Z,13.70
2023-06-08T01:01:00.743Z,13.70
2023-06-08T01:03:37.008Z,13.70
2023-06-08T01:06:06.074Z,13.70
2023-06-08T01:08:53.590Z,13.70
2023-06-08T01:11:28.142Z,13.70
2023-06-08T01:14:08.721Z,13.70
2023-06-08T01:16:40.573Z,13.70
2023-06-08T01:19:12.199Z,13.70
2023-06-08T01:21:48.958Z,13.70
2023-06-08T01:24:21.391Z,13.70
2023-06-08T01:26:50.727Z,13.70
2023-06-08T01:29:19.691Z,13.70
2023-06-08T01:31:46.863Z,13.80
2023-06-08T01:34:15.408Z,13.80
2023-06-08T01:37:08.368Z,13.80
2023-06-08T01:40:04.866Z,13.80
2023-06-08T01:42:35.500Z,13.70
2023-06-08T01:45:11.951Z,13.70
2023-06-08T01:47:48.882Z,13.70
2023-06-08T01:50:19.801Z,13.60
2023-06-08T01:52:47.069Z,13.50
2023-06-08T01:55:21.871Z,13.50
2023-06-08T01:57:49.042Z,13.50
2023-06-08T02:00:18.561Z,13.50
2023-06-08T02:02:46.571Z,13.50
2023-06-08T02:05:16.546Z,13.50
2023-06-08T02:07:44.193Z,13.50
2023-06-08T02:10:12.651Z,13.50
2023-06-08T02:12:40.298Z,13.50
2023-06-08T02:15:07.774Z,13.50
2023-06-08T02:17:37.443Z,13.50
2023-06-08T02:20:08.613Z,13.60
2023-06-08T02:22:37.159Z,13.60
2023-06-08T02:25:10.730Z,13.60
2023-06-08T02:27:38.413Z,13.60
2023-06-08T02:30:10.332Z,13.50
2023-06-08T02:32:38.375Z,13.60
2023-06-08T02:35:06.335Z,13.60
2023-06-08T02:37:35.241Z,13.60
2023-06-08T02:40:02.937Z,13.60
2023-06-08T02:42:30.254Z,13.60
2023-06-08T02:44:57.424Z,13.50
2023-06-08T02:47:24.412Z,13.60
2023-06-08T02:49:51.486Z,13.60
2023-06-08T02:52:18.485Z,13.60
2023-06-08T02:54:45.735Z,13.60
2023-06-08T02:57:12.742Z,13.60
2023-06-08T02:59:39.884Z,13.50
2023-06-08T03:02:07.016Z,13.60
2023-06-08T03:04:34.104Z,13.50
2023-06-08T03:07:02.602Z,13.60
2023-06-08T03:09:29.774Z,13.60
2023-06-08T03:11:57.876Z,13.60
2023-06-08T03:14:29.857Z,13.60
2023-06-08T03:17:04.027Z,13.60
2023-06-08T03:19:31.834Z,13.60
2023-06-08T03:22:05.481Z,13.70
2023-06-08T03:24:33.967Z,13.70
2023-06-08T03:27:02.433Z,13.70
2023-06-08T03:29:31.106Z,13.70
2023-06-08T03:31:59.201Z,13.60
2023-06-08T03:34:27.170Z,13.70
2023-06-08T03:36:57.543Z,13.70
2023-06-08T03:39:24.529Z,13.70
2023-06-08T03:41:51.959Z,13.70
2023-06-08T03:44:19.072Z,13.70
2023-06-08T03:46:47.634Z,13.70
2023-06-08T03:49:14.860Z,13.80
2023-06-08T03:51:41.996Z,13.80
2023-06-08T03:54:09.369Z,13.80
2023-06-08T03:56:36.478Z,13.80
2023-06-08T03:59:03.728Z,13.80
2023-06-08T04:01:31.678Z,13.80
2023-06-08T04:03:59.185Z,13.90
2023-06-08T04:06:34.746Z,13.90
2023-06-08T04:09:02.460Z,13.90
2023-06-08T04:11:29.404Z,13.90
2023-06-08T04:13:56.496Z,13.90
2023-06-08T04:16:23.593Z,13.90
2023-06-08T04:18:50.738Z,14.00
2023-06-08T04:21:18.518Z,14.00
2023-06-08T04:23:48.114Z,14.00
2023-06-08T04:26:15.389Z,14.00
2023-06-08T04:28:43.198Z,14.00
2023-06-08T04:31:10.236Z,14.10
2023-06-08T04:33:37.470Z,14.00
2023-06-08T04:36:04.451Z,14.10
2023-06-08T04:38:31.872Z,14.00
2023-06-08T04:41:02.463Z,14.10
2023-06-08T04:43:32.622Z,14.10
2023-06-08T04:46:00.812Z,14.10
2023-06-08T04:48:28.882Z,14.10
2023-06-08T04:51:02.969Z,14.10
2023-06-08T04:53:31.664Z,14.20
2023-06-08T04:55:58.993Z,14.10
2023-06-08T04:58:30.501Z,14.20
2023-06-08T05:00:58.054Z,14.20
2023-06-08T05:03:26.700Z,14.20
2023-06-08T05:05:55.398Z,14.30
2023-06-08T05:08:22.506Z,14.30
2023-06-08T05:10:49.689Z,14.40
2023-06-08T05:13:16.693Z,14.40
2023-06-08T05:15:43.747Z,14.50
2023-06-08T05:18:10.817Z,14.50
2023-06-08T05:20:38.071Z,14.60
2023-06-08T05:23:05.085Z,14.60
2023-06-08T05:25:32.122Z,14.60
2023-06-08T05:27:59.055Z,14.60
2023-06-08T05:30:27.065Z,14.70
2023-06-08T05:32:54.112Z,14.70
2023-06-08T05:35:21.167Z,14.70
2023-06-08T05:37:48.276Z,14.70
2023-06-08T05:40:16.190Z,14.80
2023-06-08T05:42:43.169Z,14.80
2023-06-08T05:45:10.846Z,14.80
2023-06-08T05:47:38.069Z,14.90
2023-06-08T05:50:05.832Z,14.90
2023-06-08T05:52:33.053Z,15.00
2023-06-08T05:55:01.754Z,15.00
2023-06-08T05:57:28.979Z,15.10
2023-06-08T05:59:55.912Z,15.10
2023-06-08T06:02:22.993Z,15.20
2023-06-08T06:04:50.332Z,15.30
2023-06-08T06:07:17.508Z,15.50
2023-06-08T06:09:44.490Z,15.60
2023-06-08T06:12:11.737Z,15.70
2023-06-08T06:14:40.722Z,15.80
2023-06-08T06:17:09.154Z,15.80
2023-06-08T06:19:41.050Z,15.70
2023-06-08T06:22:10.040Z,15.60
2023-06-08T06:24:37.529Z,15.60
2023-06-08T06:27:06.714Z,15.70
2023-06-08T06:29:34.298Z,15.90
2023-06-08T06:32:01.569Z,16.20
2023-06-08T06:34:28.753Z,16.50
2023-06-08T06:36:56.489Z,16.80
2023-06-08T06:39:23.734Z,16.70
2023-06-08T06:41:50.956Z,16.70
2023-06-08T06:44:18.078Z,16.80
2023-06-08T06:46:45.235Z,16.90
2023-06-08T06:49:12.431Z,16.90
2023-06-08T06:51:42.191Z,17.00
2023-06-08T06:54:09.310Z,17.10
2023-06-08T06:56:36.402Z,17.20
2023-06-08T06:59:04.154Z,17.30
2023-06-08T07:01:32.535Z,17.40
2023-06-08T07:03:59.796Z,17.40
2023-06-08T07:06:27.937Z,17.50
2023-06-08T07:08:54.917Z,17.60
2023-06-08T07:11:21.914Z,17.60
2023-06-08T07:13:48.956Z,17.80
2023-06-08T07:16:16.301Z,18.00
2023-06-08T07:18:43.359Z,18.10
2023-06-08T07:21:10.418Z,18.30
2023-06-08T07:24:32.547Z,18.50
2023-06-08T07:26:30.534Z,18.60
2023-06-08T07:28:58.853Z,18.70
2023-06-08T07:31:28.109Z,18.60
2023-06-08T07:33:58.692Z,18.70
2023-06-08T07:36:26.320Z,18.80
2023-06-08T07:38:53.271Z,19.00
2023-06-08T07:41:20.567Z,19.00
2023-06-08T07:43:47.818Z,19.20
2023-06-08T07:46:15.350Z,19.30
2023-06-08T07:48:42.462Z,19.50
2023-06-08T07:51:09.852Z,19.60
2023-06-08T07:53:37.666Z,19.70
2023-06-08T07:56:05.260Z,19.90
2023-06-08T07:58:32.650Z,20.00
2023-06-08T08:01:00.864Z,20.10
2023-06-08T08:03:29.042Z,20.10
2023-06-08T08:05:56.731Z,20.30
2023-06-08T08:08:23.800Z,20.40
2023-06-08T08:10:50.901Z,20.60
2023-06-08T08:13:18.718Z,20.60
2023-06-08T08:15:46.971Z,20.50
2023-06-08T08:18:14.595Z,20.60
2023-06-08T08:20:41.701Z,20.80
2023-06-08T08:23:09.336Z,20.90
2023-06-08T08:25:36.550Z,21.00
2023-06-08T08:28:03.604Z,21.20
2023-06-08T08:30:32.068Z,21.20
2023-06-08T08:32:59.285Z,21.30
2023-06-08T08:35:30.258Z,21.40
2023-06-08T08:37:57.930Z,21.40
2023-06-08T08:40:25.435Z,21.60
2023-06-08T08:43:03.688Z,21.70
2023-06-08T08:45:35.559Z,21.90
2023-06-08T08:48:02.998Z,22.00
2023-06-08T08:50:35.381Z,22.10
2023-06-08T08:53:03.375Z,22.30
2023-06-08T08:58:02.861Z,22.50
2023-06-08T09:00:32.547Z,22.70
2023-06-08T09:03:01.190Z,22.70
2023-06-08T09:05:28.409Z,22.80
2023-06-08T09:07:56.486Z,22.90
2023-06-08T09:10:28.332Z,23.10
2023-06-08T09:12:56.959Z,23.30
2023-06-08T09:15:37.882Z,23.40
2023-06-08T09:18:19.039Z,23.70
2023-06-08T09:20:46.753Z,23.80
2023-06-08T09:23:22.277Z,23.90
2023-06-08T09:25:49.406Z,24.00
2023-06-08T09:28:27.220Z,24.10
2023-06-08T09:30:58.330Z,24.10
2023-06-08T09:33:27.963Z,24.20
2023-06-08T09:35:57.741Z,24.50
2023-06-08T09:38:29.070Z,24.60
2023-06-08T09:41:18.728Z,24.80
2023-06-08T09:43:47.780Z,25.00
2023-06-08T09:46:33.033Z,25.10
2023-06-08T09:49:00.599Z,25.20
2023-06-08T09:51:27.568Z,25.40
2023-06-08T09:53:57.084Z,25.50
2023-06-08T09:56:25.214Z,25.70
2023-06-08T09:58:54.369Z,25.90
2023-06-08T10:01:35.364Z,26.00
2023-06-08T10:04:11.520Z,26.00
2023-06-08T10:06:40.841Z,26.10
2023-06-08T10:09:12.524Z,26.20
2023-06-08T10:11:40.952Z,26.20
2023-06-08T10:14:10.012Z,26.10
2023-06-08T10:16:37.972Z,26.00
2023-06-08T10:19:05.341Z,26.10
2023-06-08T10:21:32.509Z,26.30
2023-06-08T10:24:01.363Z,26.50
2023-06-08T10:26:28.762Z,26.60
2023-06-08T10:29:22.201Z,26.60
2023-06-08T10:31:50.745Z,26.70
2023-06-08T10:34:21.112Z,26.70
2023-06-08T10:36:48.378Z,26.70
2023-06-08T10:39:18.003Z,26.80
2023-06-08T10:41:58.076Z,26.90
2023-06-08T10:44:34.918Z,27.00
2023-06-08T10:47:05.022Z,27.00
2023-06-08T10:49:33.903Z,26.80
2023-06-08T10:52:09.141Z,26.60
2023-06-08T10:54:48.932Z,26.60
2023-06-08T10:57:41.128Z,26.60
2023-06-08T11:00:24.660Z,26.60
2023-06-08T11:02:52.828Z,26.70
2023-06-08T11:05:20.757Z,26.80
2023-06-08T11:07:47.974Z,26.90
2023-06-08T11:10:15.549Z,26.90
2023-06-08T11:12:42.500Z,26.80
2023-06-08T11:15:09.705Z,26.80
2023-06-08T11:17:58.053Z,27.00
2023-06-08T11:20:28.289Z,27.10
2023-06-08T11:22:55.892Z,27.40
2023-06-08T11:25:24.910Z,27.60
2023-06-08T11:27:56.943Z,27.70
2023-06-08T11:30:29.547Z,28.00
2023-06-08T11:32:59.681Z,28.10
2023-06-08T11:35:27.073Z,28.30
2023-06-08T11:38:00.554Z,28.40
2023-06-08T11:40:29.007Z,28.40
2023-06-08T11:42:57.274Z,28.10
2023-06-08T11:45:25.588Z,28.00
2023-06-08T11:48:14.455Z,27.80
2023-06-08T11:50:50.329Z,28.00
2023-06-08T11:53:26.348Z,28.20
2023-06-08T11:55:55.189Z,28.40
2023-06-08T11:58:30.210Z,28.50
2023-06-08T12:01:06.404Z,28.60
2023-06-08T12:03:35.502Z,28.60
2023-06-08T12:06:02.911Z,28.70
2023-06-08T12:08:29.959Z,28.80
2023-06-08T12:10:57.209Z,28.70
2023-06-08T12:13:25.652Z,29.60
2023-06-08T12:15:54.636Z,30.10
2023-06-08T12:18:24.696Z,30.20
2023-06-08T12:20:55.045Z,30.30
2023-06-08T12:23:24.148Z,30.40
2023-06-08T12:25:53.239Z,30.40
2023-06-08T12:28:23.893Z,30.50
2023-06-08T12:30:51.669Z,30.60
2023-06-08T12:33:20.862Z,30.70
2023-06-08T12:35:52.758Z,30.50
2023-06-08T12:38:19.685Z,30.40
2023-06-08T12:40:48.939Z,29.50
2023-06-08T12:43:16.760Z,29.20
2023-06-08T12:45:43.788Z,28.90
2023-06-08T12:48:11.194Z,28.70
2023-06-08T12:50:39.485Z,28.50
2023-06-08T12:53:06.865Z,28.50
2023-06-08T12:55:34.136Z,28.60
2023-06-08T12:58:01.138Z,28.30
2023-06-08T13:00:28.066Z,28.30
2023-06-08T13:02:55.153Z,28.20
2023-06-08T13:05:22.153Z,28.30
2023-06-08T13:07:50.666Z,28.60
2023-06-08T13:10:17.629Z,28.50
2023-06-08T13:12:44.977Z,28.40
2023-06-08T13:15:12.098Z,28.40
2023-06-08T13:17:39.111Z,28.20
2023-06-08T13:20:06.926Z,28.10
2023-06-08T13:22:34.212Z,28.10
2023-06-08T13:25:01.089Z,28.10
2023-06-08T13:27:28.102Z,28.20
2023-06-08T13:29:55.036Z,28.20
2023-06-08T13:32:22.076Z,28.10
2023-06-08T13:34:49.023Z,28.00
2023-06-08T13:37:15.934Z,27.90
2023-06-08T13:39:42.856Z,27.90
2023-06-08T13:42:10.149Z,27.70
2023-06-08T13:44:38.229Z,27.50
2023-06-08T13:47:05.413Z,27.20
2023-06-08T13:49:32.607Z,27.30
2023-06-08T13:51:59.636Z,27.40
2023-06-08T13:54:27.557Z,27.60
2023-06-08T13:56:54.388Z,27.80
2023-06-08T13:59:21.327Z,27.90
2023-06-08T14:01:48.259Z,28.10
2023-06-08T14:04:15.252Z,27.90
2023-06-08T14:06:43.479Z,28.10
2023-06-08T14:09:11.383Z,28.00
2023-06-08T14:11:38.518Z,27.90
2023-06-08T14:14:05.751Z,28.00
2023-06-08T14:16:32.871Z,28.10
2023-06-08T14:18:59.886Z,28.20
2023-06-08T14:21:26.786Z,28.20
2023-06-08T14:23:56.462Z,28.40
2023-06-08T14:26:24.392Z,28.20
2023-06-08T14:28:51.725Z,28.00
2023-06-08T14:31:18.677Z,28.20
2023-06-08T14:33:45.646Z,28.40
2023-06-08T14:36:12.630Z,28.40
2023-06-08T14:38:39.484Z,28.30
2023-06-08T14:41:06.428Z,28.40
2023-06-08T14:43:33.371Z,28.50
2023-06-08T14:46:00.306Z,28.80
2023-06-08T14:48:27.276Z,29.00
2023-06-08T14:50:56.846Z,28.90
2023-06-08T14:53:24.507Z,28.60
2023-06-08T14:55:51.703Z,28.50
2023-06-08T14:58:18.664Z,28.30
2023-06-08T15:00:45.706Z,28.30
2023-06-08T15:03:12.703Z,28.30
2023-06-08T15:05:41.578Z,28.00
2023-06-08T15:08:08.499Z,27.40
2023-06-08T15:10:35.774Z,26.50
2023-06-08T15:13:03.764Z,25.90
2023-06-08T15:15:32.243Z,25.50
2023-06-08T15:17:59.206Z,25.20
2023-06-08T15:20:28.798Z,24.90
2023-06-08T15:22:55.779Z,24.80
2023-06-08T15:25:22.973Z,24.60
2023-06-08T15:27:50.117Z,24.40
2023-06-08T15:30:17.163Z,24.30
2023-06-08T15:32:44.197Z,24.20
2023-06-08T15:35:12.574Z,24.00
2023-06-08T15:37:39.797Z,23.90
2023-06-08T15:40:07.715Z,23.80
2023-06-08T15:42:35.018Z,23.80
2023-06-08T15:45:02.031Z,23.60
2023-06-08T15:47:29.153Z,23.50
2023-06-08T15:49:56.320Z,23.40
2023-06-08T15:52:23.303Z,23.30
2023-06-08T15:54:50.307Z,23.30
2023-06-08T15:57:17.595Z,23.10
2023-06-08T15:59:47.678Z,23.00
2023-06-08T16:02:15.458Z,22.80
2023-06-08T16:04:42.566Z,22.70
2023-06-08T16:07:09.728Z,22.50
2023-06-08T16:09:36.701Z,22.50
2023-06-08T16:12:04.077Z,22.50
2023-06-08T16:14:31.141Z,22.40
2023-06-08T16:16:58.131Z,22.20
2023-06-08T16:19:26.764Z,22.10
2023-06-08T16:21:54.503Z,22.10
2023-06-08T16:24:28.865Z,22.10
2023-06-08T16:26:57.394Z,22.00
2023-06-08T16:29:24.512Z,21.90
2023-06-08T16:31:52.512Z,21.70
2023-06-08T16:34:20.200Z,21.50
2023-06-08T16:36:47.950Z,21.40
2023-06-08T16:39:18.310Z,21.30
2023-06-08T16:41:48.213Z,21.10
2023-06-08T16:44:15.519Z,20.90
2023-06-08T16:46:42.831Z,20.80
2023-06-08T16:49:10.293Z,20.60
2023-06-08T16:51:40.387Z,20.50
2023-06-08T16:54:08.206Z,20.50
2023-06-08T16:56:35.605Z,20.50
2023-06-08T16:59:02.848Z,20.50
2023-06-08T17:01:29.864Z,20.50
2023-06-08T17:03:58.835Z,20.40
2023-06-08T17:06:25.839Z,20.40
2023-06-08T17:08:53.475Z,20.20
2023-06-08T17:11:21.787Z,20.10
2023-06-08T17:13:48.772Z,20.00
2023-06-08T17:16:16.135Z,19.90
2023-06-08T17:18:43.347Z,19.90
2023-06-08T17:21:12.325Z,19.80
2023-06-08T17:23:40.400Z,19.80
2023-06-08T17:26:07.785Z,19.70
2023-06-08T17:28:34.807Z,19.60
2023-06-08T17:31:03.753Z,19.60
2023-06-08T17:33:31.408Z,19.60
2023-06-08T17:35:58.422Z,19.60
2023-06-08T17:38:26.131Z,19.60
2023-06-08T17:40:53.299Z,19.50
2023-06-08T17:43:20.383Z,19.50
2023-06-08T17:45:47.575Z,19.40
2023-06-08T17:48:15.280Z,19.40
2023-06-08T17:50:42.297Z,19.30
2023-06-08T17:53:09.700Z,19.20
2023-06-08T17:55:39.810Z,19.10
2023-06-08T17:58:08.817Z,19.00
2023-06-08T18:00:36.325Z,18.90
2023-06-08T18:03:05.615Z,18.80
2023-06-08T18:05:34.611Z,18.60
2023-06-08T18:08:01.818Z,18.40
2023-06-08T18:10:31.754Z,18.30
2023-06-08T18:12:58.699Z,18.30
2023-06-08T18:15:26.211Z,18.20
2023-06-08T18:17:53.588Z,18.10
2023-06-08T18:20:20.840Z,18.00
2023-06-08T18:22:47.843Z,18.00
2023-06-08T18:25:17.730Z,17.90
2023-06-08T18:27:46.658Z,17.90
2023-06-08T18:30:14.786Z,17.80
2023-06-08T18:32:41.734Z,17.70
2023-06-08T18:35:08.957Z,17.70
2023-06-08T18:37:37.548Z,17.70
2023-06-08T18:40:05.031Z,17.70
2023-06-08T18:42:32.453Z,17.60
2023-06-08T18:44:59.941Z,17.40
2023-06-08T18:47:29.134Z,17.30
2023-06-08T18:49:56.586Z,17.30
2023-06-08T18:52:24.002Z,17.30
2023-06-08T18:54:50.913Z,17.20
2023-06-08T18:57:17.936Z,17.20
2023-06-08T18:59:46.620Z,17.10
2023-06-08T19:02:13.738Z,17.00
2023-06-08T19:04:40.747Z,17.00
2023-06-08T19:07:08.073Z,16.90
2023-06-08T19:09:35.033Z,16.90
2023-06-08T19:12:02.018Z,16.90
2023-06-08T19:14:28.994Z,16.80
2023-06-08T19:16:56.068Z,16.70
2023-06-08T19:19:23.533Z,16.70
2023-06-08T19:21:50.676Z,16.60
2023-06-08T19:24:17.800Z,16.60
2023-06-08T19:26:44.869Z,16.60
2023-06-08T19:29:11.762Z,16.50
2023-06-08T19:31:39.243Z,16.40
2023-06-08T19:34:06.270Z,16.40
2023-06-08T19:36:33.602Z,16.30
2023-06-08T19:39:00.650Z,16.30
2023-06-08T19:41:28.146Z,16.20
2023-06-08T19:43:55.920Z,16.10
2023-06-08T19:46:23.851Z,16.10
2023-06-08T19:48:52.416Z,16.00
2023-06-08T19:51:20.156Z,15.90
2023-06-08T19:53:47.429Z,15.90
2023-06-08T19:56:17.823Z,15.90
2023-06-08T19:58:45.762Z,15.80
2023-06-08T20:01:12.758Z,15.70
2023-06-08T20:03:39.919Z,15.70
2023-06-08T20:06:06.892Z,15.50
2023-06-08T20:08:33.898Z,15.50
2023-06-08T20:11:01.063Z,15.50
2023-06-08T20:13:28.012Z,15.40
2023-06-08T20:15:54.948Z,15.40
2023-06-08T20:18:23.251Z,15.30
2023-06-08T20:20:50.904Z,15.30
2023-06-08T20:23:18.028Z,15.30
2023-06-08T20:25:47.015Z,15.30
2023-06-08T20:28:14.027Z,15.20
2023-06-08T20:30:41.201Z,15.20
2023-06-08T20:33:08.367Z,15.20
2023-06-08T20:35:35.430Z,15.20
2023-06-08T20:38:02.694Z,15.10
2023-06-08T20:40:29.769Z,15.00
2023-06-08T20:42:57.039Z,15.00
2023-06-08T20:45:24.304Z,15.00
2023-06-08T20:47:52.041Z,14.90
2023-06-08T20:50:19.125Z,14.90
2023-06-08T20:52:46.288Z,14.80
2023-06-08T20:55:13.460Z,14.80
2023-06-08T20:57:40.571Z,14.80
2023-06-08T21:00:11.570Z,14.80
2023-06-08T21:02:49.461Z,14.70
2023-06-08T21:05:18.439Z,14.70
2023-06-08T21:07:46.889Z,14.70
2023-06-08T21:10:14.647Z,14.60
2023-06-08T21:12:41.849Z,14.60
2023-06-08T21:15:09.577Z,14.50
2023-06-08T21:17:36.919Z,14.50
2023-06-08T21:20:05.797Z,14.40
2023-06-08T21:22:32.736Z,14.40
2023-06-08T21:24:59.721Z,14.30
2023-06-08T21:27:27.068Z,14.20
2023-06-08T21:29:54.756Z,14.20
2023-06-08T21:32:22.570Z,14.20
2023-06-08T21:34:49.708Z,14.20
2023-06-08T21:37:16.772Z,14.20
2023-06-08T21:39:44.075Z,14.20
2023-06-08T21:42:11.664Z,14.20
2023-06-08T21:44:38.958Z,14.20
2023-06-08T21:47:06.361Z,14.10
2023-06-08T21:49:33.520Z,14.10
2023-06-08T21:52:00.680Z,14.10
2023-06-08T21:54:27.730Z,14.10
2023-06-08T21:56:54.868Z,14.10
2023-06-08T21:59:22.516Z,14.10
2023-06-08T22:01:49.807Z,14.00
2023-06-08T22:04:17.201Z,14.00
2023-06-08T22:06:44.483Z,14.00
2023-06-08T22:09:11.754Z,14.00
2023-06-08T22:11:39.108Z,14.00
2023-06-08T22:14:07.059Z,14.00
2023-06-08T22:16:38.427Z,14.00
2023-06-08T22:19:08.977Z,13.90
2023-06-08T22:21:36.577Z,13.90
2023-06-08T22:24:03.886Z,13.90
2023-06-08T22:26:32.018Z,13.90
2023-06-08T22:28:59.155Z,13.90
2023-06-08T22:31:27.698Z,13.90
2023-06-08T22:33:54.861Z,13.90
2023-06-08T22:36:24.671Z,13.80
2023-06-08T22:38:52.076Z,13.80
2023-06-08T22:41:19.298Z,13.80
2023-06-08T22:43:46.262Z,13.80
2023-06-08T22:46:13.437Z,13.70
2023-06-08T22:48:42.084Z,13.80
2023-06-08T22:51:12.880Z,13.80
2023-06-08T22:53:39.985Z,13.80
2023-06-08T22:56:07.834Z,13.80
2023-06-08T22:58:34.822Z,13.70
2023-06-08T23:01:04.121Z,13.70
2023-06-08T23:03:31.336Z,13.70
2023-06-08T23:06:00.086Z,13.70
2023-06-08T23:08:29.166Z,13.70
2023-06-08T23:10:56.702Z,13.60
2023-06-08T23:13:27.304Z,13.60
2023-06-08T23:15:55.780Z,13.60
2023-06-08T23:18:32.476Z,13.60
2023-06-08T23:21:01.712Z,13.50
2023-06-08T23:23:30.811Z,13.50
2023-06-08T23:25:59.170Z,13.50
2023-06-08T23:28:27.002Z,13.50
2023-06-08T23:30:53.957Z,13.50
2023-06-08T23:33:22.015Z,13.50
2023-06-08T23:35:49.046Z,13.50
2023-06-08T23:38:16.256Z,13.50
2023-06-08T23:40:44.227Z,13.50
2023-06-08T23:43:11.299Z,13.50
2023-06-08T23:45:38.754Z,13.50
2023-06-08T23:48:06.470Z,13.40
2023-06-08T23:50:33.692Z,13.50
2023-06-08T23:53:00.739Z,13.50
2023-06-08T23:55:27.811Z,13.50
2023-06-08T23:57:55.001Z,13.50
